createdAt,value
2023-02-22T00:00:42.427Z,27.27
2023-02-22T00:03:16.231Z,27.23
2023-02-22T00:05:44.023Z,30.33
2023-02-22T00:08:11.481Z,24.70
2023-02-22T00:10:38.422Z,26.83
2023-02-22T00:13:08.267Z,26.48
2023-02-22T00:15:36.241Z,27.20
2023-02-22T00:18:04.484Z,25.50
2023-02-22T00:20:31.229Z,23.13
2023-02-22T00:22:58.241Z,27.73
2023-02-22T00:25:25.606Z,25.98
2023-02-22T00:27:52.510Z,30.38
2023-02-22T00:30:22.689Z,32.50
2023-02-22T00:32:50.273Z,27.27
2023-02-22T00:35:18.915Z,31.35
2023-02-22T00:37:48.175Z,33.58
2023-02-22T00:40:17.358Z,32.58
2023-02-22T00:42:44.207Z,33.22
2023-02-22T00:45:10.938Z,31.30
2023-02-22T00:47:39.028Z,33.08
2023-02-22T00:50:06.235Z,32.83
2023-02-22T00:52:32.959Z,37.42
2023-02-22T00:54:59.690Z,36.33
2023-02-22T00:57:26.418Z,32.30
2023-02-22T00:59:53.205Z,36.42
2023-02-22T01:02:20.379Z,35.80
2023-02-22T01:04:48.659Z,36.90
2023-02-22T01:07:15.616Z,35.00
2023-02-22T01:09:42.356Z,41.28
2023-02-22T01:12:09.117Z,39.28
2023-02-22T01:14:35.869Z,33.80
2023-02-22T01:17:02.670Z,30.42
2023-02-22T01:19:29.549Z,35.63
2023-02-22T01:21:58.760Z,37.78
2023-02-22T01:24:25.504Z,43.15
2023-02-22T01:26:52.845Z,37.97
2023-02-22T01:29:20.272Z,39.97
2023-02-22T01:31:52.716Z,41.67
2023-02-22T01:34:19.608Z,38.20
2023-02-22T01:36:46.375Z,38.08
2023-02-22T01:39:14.713Z,43.00
2023-02-22T01:41:41.454Z,41.22
2023-02-22T01:44:20.375Z,36.20
2023-02-22T01:49:15.144Z,40.50
2023-02-22T01:51:46.005Z,41.20
2023-02-22T01:54:17.695Z,41.78
2023-02-22T01:56:48.554Z,37.60
2023-02-22T01:59:15.526Z,37.58
2023-02-22T02:01:42.962Z,46.13
2023-02-22T02:04:12.729Z,41.20
2023-02-22T02:06:40.184Z,39.03
2023-02-22T02:09:12.244Z,45.45
2023-02-22T02:11:41.607Z,46.50
2023-02-22T02:14:10.304Z,39.30
2023-02-22T02:16:41.799Z,43.55
2023-02-22T02:19:14.778Z,46.42
2023-02-22T02:22:15.096Z,35.58
2023-02-22T02:25:11.901Z,41.88
2023-02-22T02:27:57.914Z,39.30
2023-02-22T02:30:54.751Z,40.33
2023-02-22T02:33:29.559Z,43.95
2023-02-22T02:36:01.693Z,43.55
2023-02-22T02:38:34.890Z,44.90
2023-02-22T02:41:08.510Z,41.65
2023-02-22T02:43:40.422Z,38.95
2023-02-22T02:46:12.150Z,39.78
2023-02-22T02:48:45.096Z,45.00
2023-02-22T02:51:13.202Z,40.95
2023-02-22T02:53:44.595Z,45.23
2023-02-22T02:56:11.450Z,45.75
2023-02-22T02:58:45.698Z,47.45
2023-02-22T03:01:15.313Z,48.20
2023-02-22T03:03:58.436Z,46.13
2023-02-22T03:06:51.334Z,47.83
2023-02-22T03:09:30.339Z,45.58
2023-02-22T03:14:37.551Z,47.58
2023-02-22T03:17:12.042Z,46.95
2023-02-22T03:19:46.866Z,49.95
2023-02-22T03:22:20.623Z,44.47
2023-02-22T03:24:53.566Z,51.38
2023-02-22T03:27:24.708Z,49.60
2023-02-22T03:29:54.764Z,46.05
2023-02-22T03:32:27.748Z,53.10
2023-02-22T03:35:01.158Z,55.85
2023-02-22T03:37:31.668Z,50.42
2023-02-22T03:40:01.629Z,53.38
2023-02-22T03:42:33.619Z,57.78
2023-02-22T03:45:02.658Z,47.05
2023-02-22T03:50:04.628Z,43.10
2023-02-22T03:52:31.477Z,41.08
2023-02-22T03:54:58.243Z,51.03
2023-02-22T03:57:28.574Z,57.17
2023-02-22T03:59:55.640Z,57.47
2023-02-22T04:02:22.342Z,52.00
2023-02-22T04:04:49.541Z,63.83
2023-02-22T04:07:17.836Z,58.28
2023-02-22T04:09:44.602Z,49.28
2023-02-22T04:12:11.324Z,49.25
2023-02-22T04:14:38.065Z,45.80
2023-02-22T04:17:04.833Z,52.08
2023-02-22T04:19:31.603Z,49.10
2023-02-22T04:21:58.407Z,64.80
2023-02-22T04:24:26.509Z,53.67
2023-02-22T04:26:53.616Z,54.00
2023-02-22T04:29:20.361Z,49.20
2023-02-22T04:31:47.363Z,47.83
2023-02-22T04:34:14.126Z,59.58
2023-02-22T04:36:40.987Z,51.00
2023-02-22T04:39:07.712Z,61.88
2023-02-22T04:41:35.808Z,47.90
2023-02-22T04:44:03.034Z,62.93
2023-02-22T04:46:29.881Z,51.92
2023-02-22T04:48:57.156Z,63.40
2023-02-22T04:51:24.016Z,53.40
2023-02-22T04:53:50.760Z,63.83
2023-02-22T04:56:17.847Z,57.90
2023-02-22T04:58:45.929Z,63.90
2023-02-22T05:01:12.968Z,62.57
2023-02-22T05:03:42.036Z,63.08
2023-02-22T05:08:35.685Z,62.17
2023-02-22T05:11:02.431Z,65.82
2023-02-22T05:13:29.190Z,81.13
2023-02-22T05:15:57.347Z,86.50
2023-02-22T05:18:24.122Z,62.58
2023-02-22T05:20:52.086Z,54.40
2023-02-22T05:23:18.870Z,80.18
2023-02-22T05:25:45.615Z,53.50
2023-02-22T05:28:14.411Z,136.38
2023-02-22T05:30:41.491Z,143.48
2023-02-22T05:33:10.113Z,95.78
2023-02-22T05:35:37.663Z,88.20
2023-02-22T05:38:04.908Z,136.93
2023-02-22T05:40:31.887Z,143.48
2023-02-22T05:42:59.344Z,137.48
2023-02-22T05:45:27.773Z,70.40
2023-02-22T05:47:54.852Z,127.70
2023-02-22T05:50:23.326Z,83.00
2023-02-22T05:52:50.416Z,73.47
2023-02-22T05:55:20.872Z,66.70
2023-02-22T05:57:47.740Z,65.78
2023-02-22T06:00:18.260Z,56.38
2023-02-22T06:02:45.121Z,117.57
2023-02-22T06:05:12.116Z,88.38
2023-02-22T06:07:40.563Z,149.73
2023-02-22T06:10:07.648Z,62.13
2023-02-22T06:12:34.507Z,80.63
2023-02-22T06:15:01.344Z,93.18
2023-02-22T06:17:28.084Z,66.35
2023-02-22T06:19:54.833Z,71.80
2023-02-22T06:22:21.620Z,46.92
2023-02-22T06:24:49.693Z,54.20
2023-02-22T06:27:16.506Z,37.53
2023-02-22T06:29:45.336Z,39.67
2023-02-22T06:32:12.112Z,50.45
2023-02-22T06:34:39.017Z,56.95
2023-02-22T06:37:05.736Z,55.33
2023-02-22T06:39:32.500Z,58.97
2023-02-22T06:42:00.670Z,70.80
2023-02-22T06:44:27.476Z,54.97
2023-02-22T06:46:54.215Z,68.47
2023-02-22T06:49:21.003Z,47.47
2023-02-22T06:51:48.086Z,54.95
2023-02-22T06:54:15.141Z,68.00
2023-02-22T06:56:42.322Z,59.75
2023-02-22T06:59:10.465Z,56.97
2023-02-22T07:01:37.486Z,62.10
2023-02-22T07:04:04.262Z,59.75
2023-02-22T07:06:31.033Z,60.92
2023-02-22T07:08:57.836Z,63.70
2023-02-22T07:11:24.614Z,51.47
2023-02-22T07:13:51.413Z,65.32
2023-02-22T07:16:19.659Z,54.63
2023-02-22T07:18:46.545Z,48.40
2023-02-22T07:21:13.391Z,59.78
2023-02-22T07:23:40.132Z,57.78
2023-02-22T07:26:06.875Z,62.30
2023-02-22T07:28:33.612Z,62.00
2023-02-22T07:31:00.325Z,64.95
2023-02-22T07:33:28.688Z,50.65
2023-02-22T07:35:55.455Z,57.17
2023-02-22T07:38:22.201Z,62.17
2023-02-22T07:40:48.977Z,56.17
2023-02-22T07:43:17.284Z,60.83
2023-02-22T07:45:44.349Z,68.70
2023-02-22T07:48:12.150Z,65.85
2023-02-22T07:50:40.972Z,59.10
2023-02-22T07:53:11.834Z,43.40
2023-02-22T07:55:38.666Z,66.97
2023-02-22T07:58:06.889Z,54.80
2023-02-22T08:00:36.353Z,61.78
2023-02-22T08:03:05.361Z,66.20
2023-02-22T08:08:01.535Z,53.08
2023-02-22T08:10:29.879Z,48.97
2023-02-22T08:12:56.808Z,66.28
2023-02-22T08:15:25.487Z,51.95
2023-02-22T08:17:52.495Z,58.28
2023-02-22T08:20:19.576Z,67.40
2023-02-22T08:22:46.835Z,58.78
2023-02-22T08:25:15.882Z,62.33
2023-02-22T08:27:42.977Z,68.93
2023-02-22T08:30:15.797Z,72.65
2023-02-22T08:32:43.113Z,66.80
2023-02-22T08:35:09.878Z,54.97
2023-02-22T08:37:36.625Z,74.63
2023-02-22T08:40:03.712Z,60.17
2023-02-22T08:42:33.925Z,68.88
2023-02-22T08:45:02.195Z,65.55
2023-02-22T08:47:29.479Z,68.65
2023-02-22T08:49:56.724Z,71.95
2023-02-22T08:52:23.440Z,89.93
2023-02-22T08:54:50.348Z,70.22
2023-02-22T08:57:17.057Z,56.10
2023-02-22T08:59:45.132Z,78.38
2023-02-22T09:02:15.663Z,65.13
2023-02-22T09:04:42.717Z,68.30
2023-02-22T09:07:09.639Z,81.00
2023-02-22T09:09:36.402Z,63.80
2023-02-22T09:12:04.105Z,65.28
2023-02-22T09:14:30.838Z,79.75
2023-02-22T09:16:58.939Z,68.85
2023-02-22T09:19:25.741Z,67.40
2023-02-22T09:21:53.502Z,63.05
2023-02-22T09:24:20.214Z,64.03
2023-02-22T09:26:47.930Z,58.30
2023-02-22T09:29:14.642Z,54.13
2023-02-22T09:31:41.968Z,49.75
2023-02-22T09:34:10.114Z,46.95
2023-02-22T09:36:36.925Z,57.03
2023-02-22T09:39:03.738Z,52.40
2023-02-22T09:41:36.180Z,49.92
2023-02-22T09:44:16.418Z,50.13
2023-02-22T09:46:45.599Z,58.33
2023-02-22T09:49:22.998Z,49.25
2023-02-22T09:51:57.078Z,47.60
2023-02-22T09:54:28.557Z,45.75
2023-02-22T09:56:58.077Z,46.25
2023-02-22T09:59:29.641Z,43.47
2023-02-22T10:02:02.576Z,51.83
2023-02-22T10:04:40.895Z,49.63
2023-02-22T10:07:16.914Z,49.17
2023-02-22T10:09:45.295Z,43.67
2023-02-22T10:12:23.356Z,47.05
2023-02-22T10:15:23.354Z,42.80
2023-02-22T10:17:59.044Z,44.88
2023-02-22T10:20:43.694Z,46.08
2023-02-22T10:23:19.805Z,45.10
2023-02-22T10:25:53.541Z,37.22
2023-02-22T10:28:24.513Z,41.08
2023-02-22T10:30:54.583Z,39.95
2023-02-22T10:33:23.101Z,39.50
2023-02-22T10:35:52.423Z,40.55
2023-02-22T10:38:21.514Z,40.67
2023-02-22T10:40:52.906Z,41.08
2023-02-22T10:43:19.729Z,39.05
2023-02-22T10:45:46.714Z,40.45
2023-02-22T10:48:17.549Z,37.65
2023-02-22T10:50:46.521Z,37.17
2023-02-22T10:56:09.948Z,36.80
2023-02-22T10:58:44.643Z,34.30
2023-02-22T11:01:33.514Z,32.28
2023-02-22T11:04:08.814Z,33.65
2023-02-22T11:06:37.189Z,34.63
2023-02-22T11:09:13.223Z,35.38
2023-02-22T11:11:43.090Z,32.47
2023-02-22T11:14:13.646Z,32.15
2023-02-22T11:16:43.104Z,29.80
2023-02-22T11:19:19.187Z,30.40
2023-02-22T11:21:46.366Z,31.15
2023-02-22T11:26:45.825Z,33.33
2023-02-22T11:29:19.572Z,32.10
2023-02-22T11:31:47.341Z,36.17
2023-02-22T11:34:33.285Z,32.63
2023-02-22T11:37:16.443Z,35.50
2023-02-22T11:39:45.205Z,36.17
2023-02-22T11:42:21.422Z,35.88
2023-02-22T11:44:48.250Z,33.80
2023-02-22T11:47:15.232Z,36.28
2023-02-22T11:49:43.945Z,32.78
2023-02-22T11:52:20.363Z,28.83
2023-02-22T11:55:11.723Z,32.90
2023-02-22T11:57:55.536Z,34.17
2023-02-22T12:00:29.822Z,29.80
2023-02-22T12:03:23.073Z,31.73
2023-02-22T12:06:04.328Z,29.52
2023-02-22T12:08:41.211Z,27.15
2023-02-22T12:11:17.130Z,30.42
2023-02-22T12:14:03.998Z,26.40
2023-02-22T12:16:39.105Z,28.75
2023-02-22T12:19:14.681Z,27.15
2023-02-22T12:21:47.225Z,28.83
2023-02-22T12:24:18.622Z,23.95
2023-02-22T12:26:51.740Z,24.30
2023-02-22T12:29:24.648Z,24.88
2023-02-22T12:31:58.557Z,24.75
2023-02-22T12:34:31.237Z,23.67
2023-02-22T12:37:06.411Z,26.08
2023-02-22T12:39:53.190Z,27.65
2023-02-22T12:42:27.921Z,24.58
2023-02-22T12:44:58.058Z,22.45
2023-02-22T12:47:32.696Z,24.90
2023-02-22T12:50:04.984Z,21.20
2023-02-22T12:52:42.869Z,23.10
2023-02-22T12:55:14.616Z,23.50
2023-02-22T12:57:48.617Z,22.83
2023-02-22T13:00:20.017Z,21.92
2023-02-22T13:02:56.342Z,22.20
2023-02-22T13:05:24.248Z,24.85
2023-02-22T13:08:02.332Z,22.08
2023-02-22T13:10:45.270Z,22.67
2023-02-22T13:13:18.807Z,21.42
2023-02-22T13:15:53.129Z,20.33
2023-02-22T13:18:26.249Z,24.35
2023-02-22T13:20:58.006Z,22.45
2023-02-22T13:23:34.830Z,24.08
2023-02-22T13:26:09.269Z,24.65
2023-02-22T13:28:44.323Z,23.45
2023-02-22T13:31:22.808Z,23.30
2023-02-22T13:34:01.230Z,28.45
2023-02-22T13:36:37.086Z,28.52
2023-02-22T13:39:32.177Z,24.17
2023-02-22T13:42:20.755Z,24.67
2023-02-22T13:45:19.870Z,25.92
2023-02-22T13:48:07.146Z,23.00
2023-02-22T13:50:51.271Z,27.80
2023-02-22T13:53:24.718Z,26.98
2023-02-22T13:55:54.524Z,24.30
2023-02-22T13:58:21.342Z,24.17
2023-02-22T14:00:51.864Z,20.98
2023-02-22T14:03:38.000Z,25.92
2023-02-22T14:06:06.439Z,22.15
2023-02-22T14:08:42.001Z,20.73
2023-02-22T14:11:44.569Z,24.15
2023-02-22T14:14:14.240Z,24.73
2023-02-22T14:16:42.590Z,23.77
2023-02-22T14:19:16.482Z,20.67
2023-02-22T14:21:58.743Z,21.85
2023-02-22T14:24:25.781Z,24.58
2023-02-22T14:26:59.316Z,24.08
2023-02-22T14:29:26.311Z,22.05
2023-02-22T14:32:06.448Z,18.65
2023-02-22T14:34:46.756Z,21.58
2023-02-22T14:37:16.950Z,19.92
2023-02-22T14:39:46.576Z,20.85
2023-02-22T14:42:18.992Z,20.45
2023-02-22T14:44:56.643Z,18.10
2023-02-22T14:47:28.298Z,21.13
2023-02-22T14:50:03.098Z,21.52
2023-02-22T14:52:32.682Z,20.98
2023-02-22T14:55:07.083Z,19.13
2023-02-22T14:57:46.093Z,19.63
2023-02-22T15:00:16.801Z,21.27
2023-02-22T15:02:46.531Z,21.83
2023-02-22T15:05:14.377Z,20.15
2023-02-22T15:07:51.320Z,20.38
2023-02-22T15:10:22.759Z,21.10
2023-02-22T15:12:55.021Z,21.50
2023-02-22T15:15:23.513Z,23.05
2023-02-22T15:17:55.426Z,20.67
2023-02-22T15:20:24.263Z,21.63
2023-02-22T15:22:52.033Z,21.08
2023-02-22T15:25:27.417Z,22.33
2023-02-22T15:27:59.881Z,25.80
2023-02-22T15:30:28.364Z,27.52
2023-02-22T15:33:03.983Z,24.63
2023-02-22T15:35:32.758Z,21.75
2023-02-22T15:38:01.554Z,23.42
2023-02-22T15:42:55.498Z,20.67
2023-02-22T15:45:23.942Z,26.58
2023-02-22T15:47:52.326Z,27.92
2023-02-22T15:50:23.765Z,24.38
2023-02-22T15:52:54.237Z,25.10
2023-02-22T15:55:25.540Z,26.60
2023-02-22T15:57:54.271Z,26.70
2023-02-22T16:00:23.948Z,25.67
2023-02-22T16:02:51.653Z,30.20
2023-02-22T16:05:18.828Z,26.52
2023-02-22T16:07:50.195Z,24.20
2023-02-22T16:10:22.661Z,23.67
2023-02-22T16:12:49.625Z,27.10
2023-02-22T16:15:18.669Z,23.35
2023-02-22T16:20:34.019Z,28.10
2023-02-22T16:23:22.682Z,29.80
2023-02-22T16:26:05.900Z,26.50
2023-02-22T16:28:32.932Z,29.30
2023-02-22T16:31:00.686Z,29.02
2023-02-22T16:33:27.919Z,30.60
2023-02-22T16:35:54.671Z,31.88
2023-02-22T16:38:23.585Z,26.05
2023-02-22T16:43:20.366Z,29.65
2023-02-22T16:45:47.221Z,30.10
2023-02-22T16:48:17.121Z,35.97
2023-02-22T16:50:44.050Z,27.88
2023-02-22T16:53:11.037Z,29.20
2023-02-22T16:55:42.674Z,31.65
2023-02-22T16:58:09.667Z,31.27
2023-02-22T17:00:36.664Z,27.88
2023-02-22T17:03:04.848Z,31.13
2023-02-22T17:05:32.664Z,33.45
2023-02-22T17:07:59.692Z,33.10
2023-02-22T17:10:26.457Z,31.23
2023-02-22T17:12:55.851Z,29.52
2023-02-22T17:15:25.452Z,32.78
2023-02-22T17:17:53.435Z,28.90
2023-02-22T17:20:20.685Z,32.87
2023-02-22T17:22:47.906Z,35.97
2023-02-22T17:25:21.367Z,34.47
2023-02-22T17:27:48.357Z,35.05
2023-02-22T17:30:17.153Z,30.77
2023-02-22T17:32:44.065Z,28.98
2023-02-22T17:35:10.811Z,32.38
2023-02-22T17:37:37.542Z,37.33
2023-02-22T17:40:04.536Z,35.08
2023-02-22T17:42:31.268Z,39.83
2023-02-22T17:44:58.018Z,33.47
2023-02-22T17:47:26.188Z,37.53
2023-02-22T17:49:53.016Z,37.92
2023-02-22T17:52:19.807Z,39.28
2023-02-22T17:54:46.524Z,34.83
2023-02-22T17:57:13.272Z,26.73
2023-02-22T17:59:40.664Z,34.42
2023-02-22T18:02:08.162Z,36.72
2023-02-22T18:04:36.319Z,38.80
2023-02-22T18:07:03.116Z,43.67
2023-02-22T18:09:30.065Z,42.20
2023-02-22T18:11:56.798Z,45.50
2023-02-22T18:14:23.707Z,57.25
2023-02-22T18:16:50.414Z,53.95
2023-02-22T18:19:17.158Z,51.25
2023-02-22T18:21:45.276Z,55.80
2023-02-22T18:24:12.176Z,59.27
2023-02-22T18:26:39.241Z,59.75
2023-02-22T18:29:06.693Z,64.18
2023-02-22T18:31:33.498Z,69.35
2023-02-22T18:34:00.267Z,58.80
2023-02-22T18:36:27.023Z,64.53
2023-02-22T18:38:55.448Z,72.00
2023-02-22T18:41:24.076Z,73.30
2023-02-22T18:43:51.136Z,78.55
2023-02-22T18:46:20.368Z,72.88
2023-02-22T18:48:48.583Z,70.65
2023-02-22T18:51:17.023Z,54.20
2023-02-22T18:53:47.130Z,71.68
2023-02-22T18:56:17.861Z,75.00
2023-02-22T18:58:44.754Z,73.00
2023-02-22T19:01:16.149Z,74.65
2023-02-22T19:03:43.803Z,80.18
2023-02-22T19:06:10.708Z,77.90
2023-02-22T19:08:40.285Z,72.93
2023-02-22T19:11:08.634Z,67.88
2023-02-22T19:13:37.142Z,76.95
2023-02-22T19:16:05.681Z,77.30
2023-02-22T19:18:33.015Z,74.05
2023-02-22T19:21:01.212Z,66.90
2023-02-22T19:23:28.021Z,71.32
2023-02-22T19:25:54.858Z,75.80
2023-02-22T19:28:21.630Z,71.20
2023-02-22T19:30:49.730Z,76.28
2023-02-22T19:33:16.456Z,76.63
2023-02-22T19:35:45.632Z,75.55
2023-02-22T19:38:12.391Z,77.55
2023-02-22T19:40:39.158Z,77.28
2023-02-22T19:43:05.946Z,81.45
2023-02-22T19:45:32.849Z,75.45
2023-02-22T19:48:00.953Z,80.85
2023-02-22T19:50:27.731Z,83.30
2023-02-22T19:52:54.452Z,83.35
2023-02-22T19:55:21.302Z,84.65
2023-02-22T19:57:48.068Z,85.80
2023-02-22T20:00:15.497Z,88.07
2023-02-22T20:02:42.317Z,86.28
2023-02-22T20:05:11.732Z,93.15
2023-02-22T20:07:38.753Z,92.38
2023-02-22T20:10:06.233Z,89.95
2023-02-22T20:12:33.396Z,96.97
2023-02-22T20:15:00.191Z,89.97
2023-02-22T20:17:27.508Z,87.68
2023-02-22T20:19:54.456Z,91.45
2023-02-22T20:22:22.719Z,79.40
2023-02-22T20:24:49.554Z,96.65
2023-02-22T20:27:16.624Z,94.93
2023-02-22T20:29:43.387Z,83.75
2023-02-22T20:32:12.853Z,75.07
2023-02-22T20:34:40.418Z,85.03
2023-02-22T20:37:07.148Z,80.18
2023-02-22T20:39:36.235Z,69.07
2023-02-22T20:42:03.021Z,88.25
2023-02-22T20:44:29.753Z,78.63
2023-02-22T20:46:56.516Z,93.63
2023-02-22T20:49:23.281Z,88.90
2023-02-22T20:51:50.017Z,89.32
2023-02-22T20:54:17.245Z,93.15
2023-02-22T20:56:47.495Z,83.50
2023-02-22T20:59:15.998Z,78.90
2023-02-22T21:01:43.213Z,69.88
2023-02-22T21:04:11.264Z,87.25
2023-02-22T21:06:41.321Z,77.82
2023-02-22T21:09:12.261Z,94.18
2023-02-22T21:11:39.111Z,101.80
2023-02-22T21:14:07.512Z,105.15
2023-02-22T21:16:35.976Z,101.75
2023-02-22T21:19:05.227Z,71.70
2023-02-22T21:21:36.680Z,88.93
2023-02-22T21:24:03.577Z,94.45
2023-02-22T21:26:32.841Z,97.05
2023-02-22T21:29:01.619Z,91.65
2023-02-22T21:31:30.034Z,98.75
2023-02-22T21:33:58.079Z,98.45
2023-02-22T21:36:26.016Z,67.45
2023-02-22T21:38:55.215Z,98.40
2023-02-22T21:41:23.289Z,106.80
2023-02-22T21:43:51.662Z,94.53
2023-02-22T21:46:18.835Z,99.30
2023-02-22T21:48:47.197Z,93.78
2023-02-22T21:51:15.841Z,106.85
2023-02-22T21:53:44.507Z,106.55
2023-02-22T21:56:11.583Z,89.03
2023-02-22T21:58:38.329Z,101.18
2023-02-22T22:01:06.349Z,101.13
2023-02-22T22:03:33.427Z,105.13
2023-02-22T22:06:05.259Z,99.20
2023-02-22T22:08:32.001Z,101.00
2023-02-22T22:10:58.737Z,106.35
2023-02-22T22:13:26.716Z,105.97
2023-02-22T22:15:53.750Z,110.03
2023-02-22T22:18:20.482Z,112.68
2023-02-22T22:20:47.217Z,106.85
2023-02-22T22:23:15.321Z,102.55
2023-02-22T22:25:42.071Z,105.77
2023-02-22T22:28:10.276Z,99.75
2023-02-22T22:30:38.061Z,106.68
2023-02-22T22:33:05.060Z,97.82
2023-02-22T22:35:32.403Z,97.88
2023-02-22T22:37:59.550Z,103.07
2023-02-22T22:40:28.445Z,99.05
2023-02-22T22:42:55.184Z,84.38
2023-02-22T22:45:21.995Z,99.90
2023-02-22T22:47:48.737Z,94.10
2023-02-22T22:50:17.355Z,91.28
2023-02-22T22:52:44.406Z,97.82
2023-02-22T22:55:11.488Z,85.35
2023-02-22T22:57:40.543Z,99.93
2023-02-22T23:02:36.482Z,92.78
2023-02-22T23:05:03.451Z,100.60
2023-02-22T23:07:30.210Z,96.47
2023-02-22T23:09:56.925Z,91.97
2023-02-22T23:12:23.684Z,108.55
2023-02-22T23:14:51.880Z,94.32
2023-02-22T23:17:18.637Z,109.10
2023-02-22T23:19:45.431Z,99.40
2023-02-22T23:22:12.302Z,95.78
2023-02-22T23:24:39.403Z,92.35
2023-02-22T23:27:07.235Z,86.50
2023-02-22T23:29:36.342Z,87.28
2023-02-22T23:34:32.189Z,96.00
2023-02-22T23:36:58.965Z,89.05
2023-02-22T23:39:25.865Z,108.07
2023-02-22T23:41:53.794Z,98.40
2023-02-22T23:44:21.185Z,105.15
2023-02-22T23:46:50.840Z,97.90
2023-02-22T23:49:18.872Z,91.35
2023-02-22T23:51:46.154Z,101.87
2023-02-22T23:54:14.375Z,87.78
2023-02-22T23:56:42.373Z,95.68
2023-02-22T23:59:09.126Z,90.03
